createdAt,value
2018-07-08T00:01:13.155Z,3.93
2018-07-08T00:03:41.230Z,4.23
2018-07-08T00:06:09.271Z,4.53
2018-07-08T00:08:37.336Z,4.10
2018-07-08T00:11:05.428Z,4.03
2018-07-08T00:13:33.467Z,3.60
2018-07-08T00:16:01.528Z,3.50
2018-07-08T00:18:30.571Z,5.07
2018-07-08T00:20:58.680Z,4.23
2018-07-08T00:23:26.715Z,3.80
2018-07-08T00:25:54.866Z,3.97
2018-07-08T00:28:23.792Z,3.87
2018-07-08T00:30:51.835Z,5.17
2018-07-08T00:33:19.908Z,4.30
2018-07-08T00:35:47.943Z,4.10
2018-07-08T00:38:16.012Z,4.97
2018-07-08T00:40:44.084Z,4.30
2018-07-08T00:43:12.160Z,4.40
2018-07-08T00:45:40.232Z,3.73
2018-07-08T00:48:08.315Z,4.63
2018-07-08T00:50:36.627Z,4.40
2018-07-08T00:53:04.760Z,4.07
2018-07-08T00:55:32.836Z,4.30
2018-07-08T00:58:00.907Z,4.73
2018-07-08T01:00:31.580Z,4.40
2018-07-08T01:03:00.406Z,4.50
2018-07-08T01:05:28.993Z,4.63
2018-07-08T01:07:57.412Z,3.97
2018-07-08T01:10:25.484Z,4.40
2018-07-08T01:12:53.561Z,4.27
2018-07-08T01:15:21.627Z,4.63
2018-07-08T01:17:50.761Z,4.23
2018-07-08T01:20:18.900Z,5.67
2018-07-08T01:22:46.979Z,4.97
2018-07-08T01:25:16.128Z,4.13
2018-07-08T01:27:44.256Z,4.57
2018-07-08T01:30:13.544Z,4.63
2018-07-08T01:32:41.609Z,4.57
2018-07-08T01:35:09.681Z,4.50
2018-07-08T01:37:37.760Z,5.00
2018-07-08T01:40:06.500Z,5.10
2018-07-08T01:42:34.620Z,4.80
2018-07-08T01:45:02.716Z,5.30
2018-07-08T01:47:30.864Z,5.77
2018-07-08T01:49:58.968Z,5.27
2018-07-08T01:52:27.143Z,4.90
2018-07-08T01:54:55.816Z,4.87
2018-07-08T01:57:24.716Z,5.40
2018-07-08T01:59:52.987Z,5.40
2018-07-08T02:02:21.722Z,5.93
2018-07-08T02:04:50.708Z,6.17
2018-07-08T02:07:18.821Z,5.53
2018-07-08T02:09:47.400Z,5.60
2018-07-08T02:12:15.873Z,5.50
2018-07-08T02:14:44.452Z,5.13
2018-07-08T02:17:12.561Z,4.87
2018-07-08T02:19:40.837Z,5.67
2018-07-08T02:22:09.256Z,5.43
2018-07-08T02:24:37.350Z,5.80
2018-07-08T02:27:06.016Z,5.17
2018-07-08T02:29:34.658Z,5.47
2018-07-08T02:32:02.704Z,5.30
2018-07-08T02:34:30.994Z,5.90
2018-07-08T02:36:59.329Z,6.33
2018-07-08T02:39:27.905Z,6.03
2018-07-08T02:41:56.225Z,6.10
2018-07-08T02:44:24.360Z,5.70
2018-07-08T02:46:53.233Z,6.03
2018-07-08T02:49:21.699Z,5.77
2018-07-08T02:51:49.804Z,4.73
2018-07-08T02:54:18.132Z,5.60
2018-07-08T02:56:46.830Z,5.13
2018-07-08T02:59:14.940Z,5.73
2018-07-08T03:01:43.016Z,6.10
2018-07-08T03:04:11.092Z,6.43
2018-07-08T03:06:39.180Z,5.90
2018-07-08T03:09:08.372Z,5.63
2018-07-08T03:11:36.484Z,5.60
2018-07-08T03:14:04.708Z,5.37
2018-07-08T03:16:32.775Z,5.23
2018-07-08T03:19:01.028Z,5.90
2018-07-08T03:21:29.089Z,5.40
2018-07-08T03:23:57.211Z,6.80
2018-07-08T03:26:25.719Z,6.67
2018-07-08T03:28:54.033Z,5.60
2018-07-08T03:31:22.193Z,6.73
2018-07-08T03:33:56.944Z,5.63
2018-07-08T03:36:25.089Z,6.03
2018-07-08T03:38:53.297Z,6.33
2018-07-08T03:41:21.477Z,5.70
2018-07-08T03:43:49.764Z,5.87
2018-07-08T03:46:18.085Z,5.67
2018-07-08T03:48:46.376Z,5.83
2018-07-08T03:51:14.433Z,6.40
2018-07-08T03:53:42.532Z,4.87
2018-07-08T03:56:10.620Z,6.00
2018-07-08T03:58:40.690Z,5.83
2018-07-08T04:01:08.759Z,5.80
2018-07-08T04:03:37.388Z,6.00
2018-07-08T04:06:05.492Z,6.20
2018-07-08T04:08:33.560Z,6.60
2018-07-08T04:11:01.604Z,5.87
2018-07-08T04:13:29.686Z,6.17
2018-07-08T04:15:57.715Z,5.83
2018-07-08T04:18:25.775Z,5.73
2018-07-08T04:20:53.836Z,5.40
2018-07-08T04:23:21.892Z,5.30
2018-07-08T04:25:49.992Z,5.27
2018-07-08T04:28:18.294Z,5.87
2018-07-08T04:30:46.516Z,5.97
2018-07-08T04:33:14.701Z,5.13
2018-07-08T04:35:42.800Z,5.07
2018-07-08T04:38:10.986Z,5.43
2018-07-08T04:40:39.034Z,4.17
2018-07-08T04:43:07.103Z,4.47
2018-07-08T04:45:35.172Z,3.60
2018-07-08T04:48:03.252Z,3.87
2018-07-08T04:50:31.330Z,3.77
2018-07-08T04:52:59.413Z,3.52
2018-07-08T04:55:27.509Z,3.58
2018-07-08T04:57:55.580Z,3.90
2018-07-08T05:00:23.628Z,2.95
2018-07-08T05:02:51.688Z,3.00
2018-07-08T05:05:20.060Z,3.50
2018-07-08T05:07:48.121Z,2.80
2018-07-08T05:10:16.155Z,3.33
2018-07-08T05:12:44.487Z,3.45
2018-07-08T05:15:12.543Z,3.47
2018-07-08T05:17:40.728Z,2.95
2018-07-08T05:20:08.803Z,3.20
2018-07-08T05:22:36.848Z,2.92
2018-07-08T05:25:05.008Z,3.35
2018-07-08T05:27:33.103Z,3.47
2018-07-08T05:30:01.135Z,3.02
2018-07-08T05:32:29.231Z,3.10
2018-07-08T05:34:57.290Z,3.20
2018-07-08T05:37:25.327Z,3.58
2018-07-08T05:39:53.367Z,3.52
2018-07-08T05:42:21.653Z,3.10
2018-07-08T05:44:50.042Z,3.70
2018-07-08T05:47:18.360Z,3.33
2018-07-08T05:49:46.708Z,3.12
2018-07-08T05:52:20.487Z,2.98
2018-07-08T05:54:49.046Z,3.30
2018-07-08T05:57:17.458Z,2.98
2018-07-08T05:59:45.692Z,3.05
2018-07-08T06:02:14.308Z,2.95
2018-07-08T06:04:42.632Z,2.90
2018-07-08T06:07:10.615Z,2.60
2018-07-08T06:09:38.651Z,3.47
2018-07-08T06:12:08.108Z,2.70
2018-07-08T06:14:36.157Z,3.00
2018-07-08T06:17:04.212Z,2.70
2018-07-08T06:19:32.290Z,3.20
2018-07-08T06:22:00.470Z,2.67
2018-07-08T06:24:28.706Z,3.00
2018-07-08T06:26:56.772Z,2.70
2018-07-08T06:29:24.792Z,3.02
2018-07-08T06:31:52.864Z,2.72
2018-07-08T06:34:20.908Z,2.60
2018-07-08T06:36:48.978Z,2.50
2018-07-08T06:39:17.117Z,3.05
2018-07-08T06:41:45.141Z,2.70
2018-07-08T06:44:13.192Z,2.83
2018-07-08T06:46:41.261Z,2.60
2018-07-08T06:49:09.357Z,2.83
2018-07-08T06:51:37.423Z,3.22
2018-07-08T06:54:05.544Z,3.08
2018-07-08T06:56:33.597Z,2.83
2018-07-08T06:59:01.661Z,3.60
2018-07-08T07:01:29.851Z,3.17
2018-07-08T07:03:57.918Z,3.47
2018-07-08T07:06:25.987Z,3.60
2018-07-08T07:08:54.100Z,3.00
2018-07-08T07:11:23.023Z,3.02
2018-07-08T07:13:51.084Z,2.50
2018-07-08T07:16:19.137Z,2.77
2018-07-08T07:18:47.205Z,2.50
2018-07-08T07:21:15.419Z,2.77
2018-07-08T07:23:43.455Z,2.33
2018-07-08T07:26:12.751Z,2.52
2018-07-08T07:28:40.852Z,3.35
2018-07-08T07:31:08.872Z,3.20
2018-07-08T07:33:36.944Z,3.33
2018-07-08T07:36:05.185Z,2.85
2018-07-08T07:38:33.361Z,3.08
2018-07-08T07:41:01.451Z,2.70
2018-07-08T07:43:29.507Z,2.60
2018-07-08T07:45:57.919Z,2.90
2018-07-08T07:48:25.975Z,2.80
2018-07-08T07:50:54.055Z,2.85
2018-07-08T07:53:22.101Z,3.00
2018-07-08T07:55:50.158Z,3.20
2018-07-08T07:58:18.368Z,2.83
2018-07-08T08:00:46.419Z,2.80
2018-07-08T08:03:14.495Z,2.70
2018-07-08T08:05:42.568Z,2.80
2018-07-08T08:08:10.659Z,2.90
2018-07-08T08:10:39.394Z,2.80
2018-07-08T08:13:07.807Z,2.58
2018-07-08T08:15:35.849Z,2.80
2018-07-08T08:18:03.924Z,2.77
2018-07-08T08:20:31.972Z,3.10
2018-07-08T08:23:01.648Z,2.40
2018-07-08T08:25:29.688Z,2.60
2018-07-08T08:27:57.796Z,3.30
2018-07-08T08:30:26.795Z,3.22
2018-07-08T08:32:55.660Z,2.65
2018-07-08T08:35:24.502Z,3.50
2018-07-08T08:37:54.533Z,2.70
2018-07-08T08:40:25.876Z,2.62
2018-07-08T08:42:54.371Z,3.83
2018-07-08T08:45:23.720Z,3.30
2018-07-08T08:47:51.774Z,2.65
2018-07-08T08:50:19.864Z,3.08
2018-07-08T08:52:47.945Z,2.45
2018-07-08T08:55:16.029Z,2.30
2018-07-08T08:57:44.858Z,2.50
2018-07-08T09:00:16.843Z,3.87
2018-07-08T09:02:47.443Z,2.30
2018-07-08T09:05:15.721Z,3.12
2018-07-08T09:07:44.159Z,3.33
2018-07-08T09:10:12.312Z,2.83
2018-07-08T09:12:44.089Z,3.00
2018-07-08T09:15:13.595Z,4.58
2018-07-08T09:17:42.834Z,3.58
2018-07-08T09:20:10.971Z,4.65
2018-07-08T09:22:39.050Z,2.80
2018-07-08T09:25:07.557Z,2.95
2018-07-08T09:27:35.838Z,3.12
2018-07-08T09:30:04.983Z,3.12
2018-07-08T09:32:34.022Z,2.62
2018-07-08T09:35:02.199Z,3.33
2018-07-08T09:37:30.808Z,2.83
2018-07-08T09:39:58.947Z,2.27
2018-07-08T09:42:27.492Z,2.42
2018-07-08T09:44:55.801Z,3.35
2018-07-08T09:47:25.597Z,2.05
2018-07-08T09:49:53.891Z,2.67
2018-07-08T09:52:22.021Z,1.98
2018-07-08T12:27:40.627Z,1.72
2018-07-08T12:30:08.727Z,2.30
2018-07-08T12:32:36.836Z,2.67
2018-07-08T12:35:04.908Z,3.25
2018-07-08T12:37:33.000Z,2.40
2018-07-08T12:40:01.045Z,2.60
2018-07-08T12:42:29.129Z,2.65
2018-07-08T12:44:57.773Z,2.35
2018-07-08T12:47:26.111Z,2.30
2018-07-08T12:49:54.938Z,1.95
2018-07-08T12:52:24.771Z,1.85
2018-07-08T12:54:53.499Z,2.02
2018-07-08T12:57:22.791Z,2.08
2018-07-08T12:59:51.564Z,2.15
2018-07-08T13:02:19.592Z,2.15
2018-07-08T13:04:47.716Z,2.27
2018-07-08T13:07:16.331Z,2.35
2018-07-08T13:09:44.805Z,1.75
2018-07-08T13:12:12.843Z,2.08
2018-07-08T13:14:40.868Z,2.27
2018-07-08T13:17:08.960Z,2.08
2018-07-08T13:19:37.357Z,2.42
2018-07-08T13:22:05.411Z,2.20
2018-07-08T13:24:33.460Z,2.30
2018-07-08T13:27:01.520Z,1.90
2018-07-08T13:29:30.396Z,2.15
2018-07-08T13:31:58.518Z,1.92
2018-07-08T13:34:27.441Z,1.70
2018-07-08T13:36:55.483Z,1.40
2018-07-08T13:39:23.705Z,1.37
2018-07-08T13:41:51.814Z,2.30
2018-07-08T13:44:19.863Z,3.40
2018-07-08T13:46:48.147Z,2.00
2018-07-08T13:49:16.255Z,2.05
2018-07-08T13:51:44.295Z,2.02
2018-07-08T13:54:12.928Z,2.58
2018-07-08T13:56:41.073Z,2.47
2018-07-08T13:59:09.116Z,1.75
2018-07-08T14:01:37.200Z,1.92
2018-07-08T14:04:05.654Z,2.40
2018-07-08T14:06:33.765Z,1.95
2018-07-08T14:09:01.862Z,1.90
2018-07-08T14:11:30.055Z,2.30
2018-07-08T14:13:58.098Z,2.10
2018-07-08T14:16:26.142Z,1.98
2018-07-08T14:18:54.192Z,1.85
2018-07-08T14:21:22.220Z,2.12
2018-07-08T14:23:50.235Z,3.00
2018-07-08T14:26:18.287Z,2.50
2018-07-08T14:28:46.340Z,2.35
2018-07-08T14:31:14.433Z,2.27
2018-07-08T14:33:42.437Z,2.05
2018-07-08T14:36:10.477Z,2.40
2018-07-08T14:38:38.815Z,1.92
2018-07-08T14:41:06.844Z,1.87
2018-07-08T14:43:34.900Z,2.02
2018-07-08T14:46:02.982Z,1.82
2018-07-08T14:48:31.015Z,2.10
2018-07-08T14:50:59.043Z,1.82
2018-07-08T14:53:27.092Z,1.67
2018-07-08T14:55:55.135Z,2.37
2018-07-08T14:58:23.784Z,2.10
2018-07-08T15:00:52.059Z,2.60
2018-07-08T15:03:20.498Z,2.62
2018-07-08T15:05:48.872Z,2.40
2018-07-08T15:08:16.956Z,2.20
2018-07-08T15:10:45.027Z,1.80
2018-07-08T15:13:13.428Z,2.10
2018-07-08T15:15:41.482Z,2.08
2018-07-08T15:18:09.591Z,1.80
2018-07-08T15:20:37.666Z,2.10
2018-07-08T15:23:05.712Z,2.25
2018-07-08T15:25:34.032Z,2.67
2018-07-08T15:28:02.060Z,2.70
2018-07-08T15:30:30.216Z,2.00
2018-07-08T15:32:58.372Z,2.37
2018-07-08T15:35:26.721Z,1.85
2018-07-08T15:37:54.928Z,1.85
2018-07-08T15:40:23.091Z,2.02
2018-07-08T15:42:51.381Z,2.00
2018-07-08T15:45:19.781Z,2.12
2018-07-08T15:47:48.248Z,2.00
2018-07-08T15:50:16.288Z,2.17
2018-07-08T15:52:44.320Z,2.10
2018-07-08T15:55:13.039Z,2.42
2018-07-08T15:57:41.082Z,2.30
2018-07-08T16:00:09.162Z,2.55
2018-07-08T16:02:37.275Z,2.62
2018-07-08T16:05:05.333Z,2.10
2018-07-08T16:07:33.443Z,2.37
2018-07-08T16:10:01.553Z,2.20
2018-07-08T16:12:29.595Z,2.10
2018-07-08T16:14:57.678Z,1.70
2018-07-08T16:17:25.730Z,1.92
2018-07-08T16:19:54.050Z,2.20
2018-07-08T16:22:22.123Z,2.55
2018-07-08T16:24:50.619Z,2.12
2018-07-08T16:27:18.676Z,2.30
2018-07-08T16:29:46.753Z,1.98
2018-07-08T16:32:14.815Z,1.77
2018-07-08T16:34:43.506Z,2.08
2018-07-08T16:37:11.546Z,2.27
2018-07-08T16:39:40.055Z,2.85
2018-07-08T16:42:08.256Z,1.65
2018-07-08T16:44:36.843Z,1.90
2018-07-08T16:47:04.946Z,2.40
2018-07-08T16:49:33.069Z,2.00
2018-07-08T16:52:01.195Z,1.80
2018-07-08T16:54:29.250Z,2.05
2018-07-08T16:56:57.967Z,2.37
2018-07-08T16:59:26.018Z,2.15
2018-07-08T17:01:54.106Z,2.12
2018-07-08T17:04:23.111Z,2.20
2018-07-08T17:06:51.179Z,2.45
2018-07-08T17:09:19.800Z,2.20
2018-07-08T17:11:47.899Z,2.30
2018-07-08T17:14:15.968Z,1.80
2018-07-08T17:16:44.172Z,1.98
2018-07-08T17:19:12.253Z,2.17
2018-07-08T17:21:40.479Z,2.02
2018-07-08T17:24:08.547Z,2.00
2018-07-08T17:26:37.021Z,2.62
2018-07-08T17:29:05.118Z,1.77
2018-07-08T17:31:33.179Z,2.00
2018-07-08T17:34:01.231Z,1.98
2018-07-08T17:36:29.315Z,1.82
2018-07-08T17:38:57.361Z,2.20
2018-07-08T17:41:25.434Z,2.22
2018-07-08T17:43:53.588Z,2.20
2018-07-08T17:46:22.449Z,1.80
2018-07-08T17:48:50.640Z,2.20
2018-07-08T17:51:18.669Z,2.22
2018-07-08T17:53:46.748Z,2.40
2018-07-08T17:56:15.292Z,2.25
2018-07-08T17:58:43.543Z,2.02
2018-07-08T18:01:11.600Z,1.77
2018-07-08T18:03:39.640Z,2.30
2018-07-08T18:06:07.923Z,2.50
2018-07-08T18:08:36.011Z,2.00
2018-07-08T18:11:04.039Z,2.12
2018-07-08T18:13:32.095Z,2.00
2018-07-08T18:16:00.160Z,2.20
2018-07-08T18:18:28.343Z,2.50
2018-07-08T18:20:56.441Z,1.87
2018-07-08T18:23:25.022Z,2.10
2018-07-08T18:25:53.838Z,1.82
2018-07-08T18:28:21.948Z,1.70
2018-07-08T18:30:51.058Z,1.85
2018-07-08T18:33:19.232Z,1.75
2018-07-08T18:35:47.415Z,2.12
2018-07-08T18:38:15.668Z,2.30
2018-07-08T18:40:43.840Z,1.55
2018-07-08T18:43:11.955Z,1.65
2018-07-08T18:45:40.029Z,1.62
2018-07-08T18:48:08.101Z,2.08
2018-07-08T18:50:36.192Z,2.45
2018-07-08T18:53:04.909Z,1.77
2018-07-08T18:55:33.248Z,1.72
2018-07-08T18:58:01.319Z,2.10
2018-07-08T19:00:30.296Z,1.80
2018-07-08T19:02:58.452Z,1.50
2018-07-08T19:05:26.635Z,1.50
2018-07-08T19:07:55.832Z,1.45
2018-07-08T19:10:24.784Z,2.17
2018-07-08T19:12:53.538Z,2.15
2018-07-08T19:15:21.588Z,1.98
2018-07-08T19:17:49.682Z,1.65
2018-07-08T19:20:17.979Z,1.75
2018-07-08T19:22:47.857Z,1.37
2018-07-08T19:25:16.300Z,1.82
2018-07-08T19:27:44.659Z,1.70
2018-07-08T19:30:12.776Z,1.98
2018-07-08T19:32:40.865Z,2.30
2018-07-08T19:35:09.840Z,2.08
2018-07-08T19:37:37.910Z,1.90
2018-07-08T19:40:05.987Z,2.10
2018-07-08T19:42:34.117Z,1.60
2018-07-08T19:45:02.492Z,1.90
2018-07-08T19:47:30.688Z,1.67
2018-07-08T19:49:58.751Z,2.00
2018-07-08T19:52:27.578Z,1.75
2018-07-08T19:55:02.693Z,1.98
2018-07-08T19:57:31.784Z,1.95
2018-07-08T19:59:59.835Z,1.50
2018-07-08T20:02:29.475Z,1.85
2018-07-08T20:04:57.816Z,2.35
2018-07-08T20:07:25.928Z,2.12
2018-07-08T20:09:54.045Z,1.98
2018-07-08T20:12:22.098Z,1.98
2018-07-08T20:14:50.308Z,1.95
2018-07-08T20:17:18.703Z,1.72
2018-07-08T20:19:47.855Z,2.05
2018-07-08T20:22:16.446Z,1.80
2018-07-08T20:24:44.865Z,2.40
2018-07-08T20:27:13.147Z,2.12
2018-07-08T20:29:41.288Z,1.75
2018-07-08T20:32:10.363Z,1.95
2018-07-08T20:34:38.803Z,1.82
2018-07-08T20:37:07.143Z,2.12
2018-07-08T20:39:35.209Z,2.00
2018-07-08T20:42:04.164Z,1.80
2018-07-08T20:44:32.263Z,2.20
2018-07-08T20:47:00.570Z,1.77
2018-07-08T20:49:28.773Z,2.00
2018-07-08T20:51:58.030Z,1.87
2018-07-08T20:54:26.323Z,1.77
2018-07-08T20:56:54.528Z,2.02
2018-07-08T20:59:22.799Z,1.90
2018-07-08T21:01:51.174Z,2.10
2018-07-08T21:04:19.851Z,2.20
2018-07-08T21:06:48.305Z,1.77
2018-07-08T21:09:16.804Z,2.12
2018-07-08T21:11:44.929Z,1.75
2018-07-08T21:14:13.441Z,2.30
2018-07-08T21:16:41.543Z,2.40
2018-07-08T21:19:09.632Z,2.55
2018-07-08T21:21:38.077Z,2.62
2018-07-08T21:24:06.421Z,2.35
2018-07-08T21:26:34.604Z,2.45
2018-07-08T21:29:03.860Z,2.95
2018-07-08T21:31:32.322Z,2.30
2018-07-08T21:34:00.417Z,2.40
2018-07-08T21:36:28.804Z,2.33
2018-07-08T21:38:56.871Z,2.62
2018-07-08T21:41:24.954Z,2.50
2018-07-08T21:43:53.081Z,2.55
2018-07-08T21:46:21.167Z,2.55
2018-07-08T21:48:49.237Z,2.47
2018-07-08T21:51:17.435Z,2.87
2018-07-08T21:53:45.521Z,2.40
2018-07-08T21:56:14.226Z,2.80
2018-07-08T21:58:42.295Z,2.92
2018-07-08T22:01:20.519Z,2.67
2018-07-08T22:03:48.913Z,2.83
2018-07-08T22:06:17.777Z,2.90
2018-07-08T22:08:46.034Z,3.17
2018-07-08T22:11:14.122Z,2.57
2018-07-08T22:13:42.953Z,2.90
2018-07-08T22:16:11.072Z,3.00
2018-07-08T22:18:39.319Z,2.90
2018-07-08T22:21:08.325Z,2.90
2018-07-08T22:23:36.679Z,3.43
2018-07-08T22:26:04.894Z,3.20
2018-07-08T22:28:33.823Z,3.10
2018-07-08T22:31:02.236Z,2.90
2018-07-08T22:33:31.396Z,3.13
2018-07-08T22:35:59.636Z,3.77
2018-07-08T22:38:27.930Z,3.30
2018-07-08T22:40:58.929Z,2.93
2018-07-08T22:43:27.702Z,3.20
2018-07-08T22:45:56.464Z,2.83
2018-07-08T22:48:24.668Z,3.20
2018-07-08T22:50:53.087Z,3.10
2018-07-08T22:53:21.715Z,2.90
2018-07-08T22:55:50.089Z,3.00
2018-07-08T22:58:18.593Z,2.80
2018-07-08T23:00:58.106Z,2.70
2018-07-08T23:03:48.055Z,3.23
2018-07-08T23:06:17.109Z,3.10
2018-07-08T23:08:45.446Z,2.83
2018-07-08T23:11:14.094Z,2.87
2018-07-08T23:13:42.385Z,3.20
2018-07-08T23:16:10.639Z,3.57
2018-07-08T23:18:38.733Z,2.90
2018-07-08T23:21:06.973Z,3.27
2018-07-08T23:23:35.105Z,2.63
2018-07-08T23:26:03.288Z,3.10
2018-07-08T23:28:32.338Z,3.03
2018-07-08T23:31:00.388Z,3.50
2018-07-08T23:33:28.655Z,3.30
2018-07-08T23:35:56.988Z,3.10
2018-07-08T23:38:25.155Z,2.97
2018-07-08T23:40:53.511Z,3.53
2018-07-08T23:43:21.877Z,2.90
2018-07-08T23:45:50.095Z,2.93
2018-07-08T23:48:18.305Z,2.97
2018-07-08T23:50:46.491Z,3.20
2018-07-08T23:53:14.920Z,3.27
2018-07-08T23:55:42.988Z,3.20
2018-07-08T23:58:11.036Z,3.70
